Time;durP1;ratioP1;P1;durP2;ratioP2;P2;SDS_P1;SDS_P2;PMS_P1;PMS_P2;Temp;Humidity;BMP_temperature;BMP_pressure;BME280_temperature;BME280_humidity;BME280_pressure;Samples;Min_cycle;Max_cycle;Signal;HPM_P1;HPM_P2
2023/07/26 00:02:04;;;;;;;1.53;1.43;;;12.90;99.90;;;;;;5053164;28;20201;-70
2023/07/26 00:04:30;;;;;;;3.23;3.03;;;12.90;99.90;;;;;;5053464;28;20197;-70
2023/07/26 00:06:55;;;;;;;1.07;1.07;;;13.00;99.90;;;;;;5053381;28;20265;-69
2023/07/26 00:09:21;;;;;;;1.53;1.43;;;13.00;99.90;;;;;;5053283;28;20716;-68
2023/07/26 00:11:47;;;;;;;3.50;1.83;;;13.00;99.90;;;;;;5053102;28;20173;-68
2023/07/26 00:14:13;;;;;;;2.27;2.07;;;13.10;99.90;;;;;;5053257;28;20187;-70
2023/07/26 00:16:40;;;;;;;2.13;2.03;;;13.00;99.90;;;;;;5052694;28;20178;-69
2023/07/26 00:19:05;;;;;;;1.07;1.07;;;13.00;99.90;;;;;;5053263;28;20802;-69
2023/07/26 00:21:32;;;;;;;0.90;0.90;;;12.90;99.90;;;;;;5052882;28;20420;-70
2023/07/26 00:23:58;;;;;;;1.37;1.27;;;12.90;99.90;;;;;;5053299;28;20578;-70
2023/07/26 00:26:25;;;;;;;1.30;1.20;;;12.90;99.90;;;;;;5053116;28;20764;-70
2023/07/26 00:28:51;;;;;;;0.77;0.77;;;12.70;99.90;;;;;;5053173;28;20439;-70
2023/07/26 00:31:17;;;;;;;1.83;1.73;;;12.70;99.90;;;;;;5052852;28;20401;-70
2023/07/26 00:33:43;;;;;;;0.50;0.50;;;12.60;99.90;;;;;;5053641;28;20181;-68
2023/07/26 00:36:09;;;;;;;0.90;0.90;;;12.60;99.90;;;;;;5053095;28;20409;-70
2023/07/26 00:38:35;;;;;;;0.90;0.90;;;12.80;99.90;;;;;;5052899;28;20201;-68
2023/07/26 00:41:00;;;;;;;1.50;1.07;;;12.80;99.90;;;;;;5052777;28;20407;-69
2023/07/26 00:43:26;;;;;;;1.80;1.70;;;12.90;99.90;;;;;;5052912;28;20201;-70
2023/07/26 00:45:53;;;;;;;1.00;1.00;;;12.80;99.90;;;;;;5053019;28;20171;-69
2023/07/26 00:48:19;;;;;;;1.20;1.20;;;12.90;99.90;;;;;;5052929;28;20202;-70
2023/07/26 00:50:47;;;;;;;1.67;1.40;;;12.90;99.90;;;;;;5052525;28;20437;-69
2023/07/26 00:53:14;;;;;;;1.50;1.00;;;12.90;99.90;;;;;;5052776;28;20416;-68
2023/07/26 00:55:40;;;;;;;1.43;1.33;;;12.90;99.90;;;;;;5052805;28;20495;-69
2023/07/26 00:58:09;;;;;;;2.10;1.03;;;12.90;99.90;;;;;;5052778;28;20920;-71
2023/07/26 01:00:40;;;;;;;1.97;1.77;;;12.80;99.90;;;;;;5052718;28;20892;-68
2023/07/26 01:03:06;;;;;;;1.50;1.40;;;12.80;99.90;;;;;;5052835;28;20451;-68
2023/07/26 01:05:42;;;;;;;2.00;1.47;;;13.00;99.90;;;;;;5052873;28;20404;-69
2023/07/26 01:08:34;;;;;;;1.47;1.03;;;13.00;99.90;;;;;;5052748;28;20903;-70
2023/07/26 01:11:05;;;;;;;1.27;0.80;;;13.10;99.90;;;;;;5052600;28;20417;-71
2023/07/26 01:13:43;;;;;;;0.90;0.90;;;13.10;99.90;;;;;;5052711;28;20487;-69
2023/07/26 01:16:08;;;;;;;1.10;1.10;;;13.10;99.90;;;;;;5052791;28;20404;-68
2023/07/26 01:18:34;;;;;;;0.83;0.83;;;13.10;99.90;;;;;;5052704;28;20494;-69
2023/07/26 01:21:00;;;;;;;1.70;0.90;;;13.10;99.90;;;;;;5052748;28;20264;-71
2023/07/26 01:23:25;;;;;;;1.87;1.27;;;13.10;99.90;;;;;;5052582;28;20207;-69
2023/07/26 01:25:51;;;;;;;3.50;2.10;;;13.00;99.90;;;;;;5052651;28;20216;-69
2023/07/26 01:28:17;;;;;;;1.80;1.53;;;12.90;99.90;;;;;;5054657;28;20186;-70
2023/07/26 01:30:43;;;;;;;1.67;1.10;;;12.90;99.90;;;;;;5055819;28;20170;-70
2023/07/26 01:33:09;;;;;;;1.90;1.60;;;13.00;99.90;;;;;;5056013;28;20347;-71
2023/07/26 01:35:37;;;;;;;1.53;1.40;;;13.00;99.90;;;;;;5055927;28;20423;-70
2023/07/26 01:38:03;;;;;;;0.87;0.87;;;13.40;99.90;;;;;;5056028;28;20443;-70
2023/07/26 01:40:29;;;;;;;2.20;1.63;;;13.10;99.90;;;;;;5055863;28;20859;-71
2023/07/26 01:42:56;;;;;;;5.83;1.53;;;13.10;99.90;;;;;;5055696;28;20487;-70
2023/07/26 01:45:21;;;;;;;0.63;0.50;;;13.10;99.90;;;;;;5055684;28;20169;-68
2023/07/26 01:47:49;;;;;;;3.00;2.70;;;13.00;99.90;;;;;;5055631;28;20405;-69
2023/07/26 01:50:14;;;;;;;1.10;0.80;;;13.20;99.90;;;;;;5055558;28;20190;-70
2023/07/26 01:52:40;;;;;;;1.57;1.47;;;13.10;99.90;;;;;;5055635;28;20458;-70
2023/07/26 01:55:06;;;;;;;0.60;0.60;;;13.10;99.90;;;;;;5055547;28;20173;-68
2023/07/26 01:57:32;;;;;;;0.70;0.67;;;13.10;99.90;;;;;;5055685;28;20547;-69
2023/07/26 01:59:59;;;;;;;1.43;1.33;;;13.00;99.90;;;;;;5055405;28;20423;-69
2023/07/26 02:02:25;;;;;;;5.50;1.60;;;12.90;99.90;;;;;;5055347;28;20217;-71
2023/07/26 02:04:50;;;;;;;1.30;1.20;;;13.00;99.90;;;;;;5055575;28;20429;-70
2023/07/26 02:07:16;;;;;;;1.73;1.17;;;13.00;99.90;;;;;;5055551;28;20585;-69
2023/07/26 02:09:43;;;;;;;1.23;1.23;;;13.00;99.90;;;;;;5055190;28;20189;-68
2023/07/26 02:12:08;;;;;;;1.77;1.63;;;13.10;99.90;;;;;;5055231;28;20405;-70
2023/07/26 02:14:34;;;;;;;1.00;1.00;;;13.10;99.90;;;;;;5055281;28;20397;-70
2023/07/26 02:17:00;;;;;;;0.77;0.77;;;13.10;99.90;;;;;;5055417;28;20267;-70
2023/07/26 02:19:26;;;;;;;2.70;2.23;;;13.20;99.90;;;;;;5055171;28;20473;-68
2023/07/26 02:21:51;;;;;;;1.97;1.87;;;13.10;99.90;;;;;;5054962;28;20194;-68
2023/07/26 02:24:17;;;;;;;1.93;1.83;;;13.00;99.90;;;;;;5055254;28;20245;-69
2023/07/26 02:26:42;;;;;;;1.33;1.23;;;13.00;99.90;;;;;;5055084;28;20173;-69
2023/07/26 02:29:08;;;;;;;1.13;1.03;;;12.90;99.90;;;;;;5055140;28;20197;-68
2023/07/26 02:31:34;;;;;;;0.80;0.80;;;12.80;99.90;;;;;;5054739;28;20166;-69
2023/07/26 02:33:59;;;;;;;0.50;0.50;;;12.80;99.90;;;;;;5054840;28;20173;-68
2023/07/26 02:36:25;;;;;;;1.23;1.13;;;12.70;99.90;;;;;;5054998;28;20173;-69
2023/07/26 02:38:51;;;;;;;2.00;1.90;;;12.70;99.90;;;;;;5054378;28;20619;-70
2023/07/26 02:41:16;;;;;;;1.03;0.93;;;12.80;99.90;;;;;;5055178;28;20670;-68
2023/07/26 02:43:42;;;;;;;2.17;1.70;;;12.80;99.90;;;;;;5055057;28;20528;-70
2023/07/26 02:46:08;;;;;;;0.90;0.90;;;12.80;99.90;;;;;;5054791;28;20580;-70
2023/07/26 02:48:34;;;;;;;1.40;1.20;;;12.80;99.90;;;;;;5054702;28;20193;-68
2023/07/26 02:51:00;;;;;;;1.10;1.10;;;12.80;99.90;;;;;;5054343;28;20428;-70
2023/07/26 02:53:25;;;;;;;1.63;0.97;;;12.80;99.90;;;;;;5054759;28;20167;-70
2023/07/26 02:55:51;;;;;;;1.17;1.07;;;12.80;99.90;;;;;;5054376;28;20170;-70
2023/07/26 02:58:17;;;;;;;2.30;2.20;;;12.60;99.90;;;;;;5054300;28;20243;-69
2023/07/26 03:00:42;;;;;;;0.50;0.50;;;12.60;99.90;;;;;;5054345;28;20204;-70
2023/07/26 03:03:08;;;;;;;1.07;1.07;;;12.50;99.90;;;;;;5054284;28;20200;-68
2023/07/26 03:05:36;;;;;;;1.80;1.70;;;12.50;99.90;;;;;;5054416;28;20669;-68
2023/07/26 03:08:02;;;;;;;1.20;1.20;;;12.60;99.90;;;;;;5054129;28;20167;-71
2023/07/26 03:10:28;;;;;;;1.70;1.43;;;12.40;99.90;;;;;;5054472;28;20407;-68
2023/07/26 03:12:54;;;;;;;0.53;0.53;;;12.40;99.90;;;;;;5054068;28;20170;-68
2023/07/26 03:15:20;;;;;;;0.77;0.77;;;12.50;99.90;;;;;;5054157;28;20235;-70
2023/07/26 03:17:46;;;;;;;0.60;0.60;;;;;;;;;;5054096;28;20401;-70
2023/07/26 03:20:12;;;;;;;1.57;1.47;;;12.40;99.90;;;;;;5054036;28;20265;-70
2023/07/26 03:22:37;;;;;;;1.07;0.70;;;12.40;99.90;;;;;;5053645;28;20890;-67
2023/07/26 03:25:04;;;;;;;1.93;1.73;;;13.00;99.90;;;;;;5053954;28;20275;-68
2023/07/26 03:27:29;;;;;;;2.00;1.53;;;12.40;99.90;;;;;;5053878;28;20208;-69
2023/07/26 03:29:55;;;;;;;1.87;1.77;;;12.40;99.90;;;;;;5053812;28;20452;-70
2023/07/26 03:32:21;;;;;;;0.80;0.77;;;12.40;99.90;;;;;;5053911;28;20173;-68
2023/07/26 03:34:47;;;;;;;1.33;1.23;;;12.50;99.90;;;;;;5053113;28;20219;-70
2023/07/26 03:37:12;;;;;;;2.03;1.83;;;12.50;99.90;;;;;;5052843;28;20176;-69
2023/07/26 03:39:38;;;;;;;1.10;1.00;;;12.50;99.90;;;;;;5053721;28;20435;-69
2023/07/26 03:42:04;;;;;;;1.60;0.70;;;12.50;99.90;;;;;;5052108;28;20670;-70
2023/07/26 03:44:30;;;;;;;0.73;0.70;;;12.70;99.90;;;;;;5053677;28;20194;-68
2023/07/26 03:46:55;;;;;;;1.10;1.10;;;12.80;99.90;;;;;;5053528;28;20470;-69
2023/07/26 03:49:21;;;;;;;1.27;1.17;;;12.80;99.90;;;;;;5053081;28;20202;-68
2023/07/26 03:51:46;;;;;;;0.80;0.80;;;12.70;99.90;;;;;;5052902;28;20178;-70
2023/07/26 03:54:12;;;;;;;1.00;0.83;;;12.60;99.90;;;;;;5053542;28;20260;-69
2023/07/26 03:56:38;;;;;;;1.03;1.03;;;12.50;99.90;;;;;;5053459;28;20197;-68
2023/07/26 03:59:03;;;;;;;0.70;0.70;;;12.50;99.90;;;;;;5053419;28;20632;-69
2023/07/26 04:01:29;;;;;;;1.27;1.27;;;12.50;99.90;;;;;;5053082;28;20189;-69
2023/07/26 04:03:54;;;;;;;0.80;0.80;;;12.50;99.90;;;;;;5053165;28;20201;-70
2023/07/26 04:06:20;;;;;;;0.80;0.80;;;12.60;99.90;;;;;;5053291;28;20209;-70
2023/07/26 04:08:46;;;;;;;1.17;1.07;;;12.60;99.90;;;;;;5053504;28;20649;-70
2023/07/26 04:11:12;;;;;;;1.23;0.93;;;12.60;99.90;;;;;;5053172;28;20201;-69
2023/07/26 04:13:37;;;;;;;1.70;1.60;;;12.60;99.90;;;;;;5053377;28;20440;-70
2023/07/26 04:16:13;;;;;;;1.03;1.03;;;12.60;99.90;;;;;;5053300;28;20174;-71
2023/07/26 04:18:39;;;;;;;1.50;1.40;;;12.70;99.90;;;;;;5053288;28;20288;-68
2023/07/26 04:21:04;;;;;;;6.00;1.87;;;12.70;99.90;;;;;;5052908;28;20487;-70
2023/07/26 04:23:30;;;;;;;0.90;0.90;;;12.60;99.90;;;;;;5053070;28;20205;-70
2023/07/26 04:25:56;;;;;;;0.50;0.50;;;12.50;99.90;;;;;;5053178;28;20166;-70
2023/07/26 04:28:21;;;;;;;1.10;1.07;;;12.50;99.90;;;;;;5053180;28;20225;-69
2023/07/26 04:30:48;;;;;;;0.83;0.83;;;12.50;99.90;;;;;;5052864;28;20169;-70
2023/07/26 04:33:14;;;;;;;1.30;1.00;;;12.50;99.90;;;;;;5053172;28;20184;-70
2023/07/26 04:35:40;;;;;;;0.80;0.80;;;12.60;99.90;;;;;;5053043;28;20407;-68
2023/07/26 04:38:05;;;;;;;0.40;0.40;;;12.60;99.90;;;;;;5052854;28;20404;-69
2023/07/26 04:40:31;;;;;;;0.70;0.67;;;12.60;99.90;;;;;;5052990;28;20170;-70
2023/07/26 04:42:57;;;;;;;3.23;1.23;;;12.50;99.90;;;;;;5052638;28;20190;-71
2023/07/26 04:45:22;;;;;;;0.70;0.70;;;12.50;99.90;;;;;;5052972;28;20201;-68
2023/07/26 04:47:48;;;;;;;1.00;1.00;;;12.70;99.90;;;;;;5052768;28;20170;-70
2023/07/26 04:50:13;;;;;;;2.10;1.00;;;12.50;99.90;;;;;;5052790;28;20186;-68
2023/07/26 04:52:39;;;;;;;0.70;0.70;;;12.50;99.90;;;;;;5052783;28;20252;-68
2023/07/26 04:55:05;;;;;;;0.50;0.50;;;12.60;99.90;;;;;;5052947;28;20637;-68
2023/07/26 04:57:31;;;;;;;1.80;1.70;;;12.70;99.90;;;;;;5052918;28;20169;-68
2023/07/26 04:59:57;;;;;;;1.20;1.20;;;12.60;99.90;;;;;;5052687;28;20473;-69
2023/07/26 05:02:22;;;;;;;1.23;1.10;;;12.70;99.90;;;;;;5054878;28;20232;-70
2023/07/26 05:04:48;;;;;;;1.30;1.20;;;12.70;99.90;;;;;;5056607;28;20201;-70
2023/07/26 05:07:13;;;;;;;1.00;1.00;;;12.70;99.90;;;;;;5056612;28;20166;-69
2023/07/26 05:09:39;;;;;;;0.60;0.60;;;12.80;99.90;;;;;;5056445;28;20735;-68
2023/07/26 05:12:05;;;;;;;1.13;1.03;;;13.00;99.90;;;;;;5056344;28;20204;-69
2023/07/26 05:14:31;;;;;;;1.70;1.30;;;13.00;99.90;;;;;;5056417;28;20542;-70
2023/07/26 05:16:56;;;;;;;1.60;1.50;;;13.10;99.90;;;;;;5056332;28;20413;-70
2023/07/26 05:19:22;;;;;;;1.33;1.23;;;13.10;99.90;;;;;;5056112;28;20193;-70
2023/07/26 05:21:48;;;;;;;4.63;0.87;;;13.10;99.90;;;;;;5056063;28;20562;-70
2023/07/26 05:24:13;;;;;;;0.80;0.80;;;13.10;99.90;;;;;;5056518;28;20630;-69
2023/07/26 05:26:39;;;;;;;0.50;0.50;;;13.00;99.90;;;;;;5056324;28;20170;-69
2023/07/26 05:29:04;;;;;;;1.53;1.43;;;13.10;99.90;;;;;;5056064;28;20649;-68
2023/07/26 05:31:30;;;;;;;2.00;1.33;;;13.00;99.90;;;;;;5055978;28;20170;-70
2023/07/26 05:33:55;;;;;;;0.90;0.90;;;13.00;99.90;;;;;;5056302;28;20177;-71
2023/07/26 05:36:21;;;;;;;0.70;0.70;;;13.00;99.90;;;;;;5056021;28;20170;-70
2023/07/26 05:38:47;;;;;;;1.07;0.93;;;13.10;99.90;;;;;;5056306;28;20194;-68
2023/07/26 05:41:12;;;;;;;1.73;1.63;;;13.10;99.90;;;;;;5055807;28;20207;-70
2023/07/26 05:43:38;;;;;;;1.83;1.30;;;13.20;99.90;;;;;;5055715;28;20204;-70
2023/07/26 05:46:03;;;;;;;2.00;1.90;;;13.20;99.90;;;;;;5055996;28;20617;-68
2023/07/26 05:48:30;;;;;;;0.97;0.97;;;13.20;99.90;;;;;;5055692;28;20186;-71
2023/07/26 05:50:56;;;;;;;0.80;0.80;;;13.30;99.90;;;;;;5055456;28;20553;-68
2023/07/26 05:53:21;;;;;;;0.50;0.50;;;13.30;99.90;;;;;;5055947;28;20404;-69
2023/07/26 05:55:47;;;;;;;1.20;1.10;;;13.20;99.90;;;;;;5055775;28;20182;-69
2023/07/26 05:58:12;;;;;;;0.87;0.80;;;13.10;99.90;;;;;;5055697;28;20287;-68
2023/07/26 06:00:38;;;;;;;1.30;1.30;;;13.20;99.90;;;;;;5055316;28;20178;-68
2023/07/26 06:03:04;;;;;;;2.77;0.90;;;13.20;99.90;;;;;;5055405;28;20603;-69
2023/07/26 06:05:29;;;;;;;1.80;1.47;;;13.20;99.90;;;;;;5055423;28;20174;-70
2023/07/26 06:07:55;;;;;;;2.20;1.77;;;13.00;99.90;;;;;;5054540;28;20220;-70
2023/07/26 06:10:20;;;;;;;0.50;0.50;;;12.80;99.90;;;;;;5054394;28;20166;-70
2023/07/26 06:12:46;;;;;;;0.70;0.70;;;12.80;99.90;;;;;;5051554;28;20178;-69
2023/07/26 06:15:12;;;;;;;0.60;0.57;;;12.80;99.90;;;;;;5053714;28;20184;-71
2023/07/26 06:17:38;;;;;;;0.80;0.80;;;12.80;99.90;;;;;;5055298;28;20201;-67
2023/07/26 06:20:04;;;;;;;1.73;1.60;;;12.90;99.90;;;;;;5053912;28;20182;-70
2023/07/26 06:22:30;;;;;;;0.77;0.77;;;12.90;99.90;;;;;;5055005;28;20448;-67
2023/07/26 06:24:56;;;;;;;0.73;0.50;;;12.70;99.90;;;;;;5055317;28;20752;-70
2023/07/26 06:27:22;;;;;;;0.60;0.60;;;12.50;99.90;;;;;;5055223;28;20257;-69
2023/07/26 06:29:48;;;;;;;0.40;0.40;;;12.40;99.90;;;;;;5054902;28;20193;-68
2023/07/26 06:32:14;;;;;;;1.20;1.13;;;12.40;99.90;;;;;;5054850;28;20412;-70
2023/07/26 06:34:40;;;;;;;0.50;0.50;;;12.30;99.90;;;;;;5054932;28;20400;-70
2023/07/26 06:37:05;;;;;;;0.40;0.40;;;12.30;99.90;;;;;;5054952;28;20181;-71
2023/07/26 06:39:31;;;;;;;0.53;0.50;;;12.30;99.90;;;;;;5054772;28;20190;-69
2023/07/26 06:41:56;;;;;;;0.40;0.40;;;12.40;99.90;;;;;;5054567;28;20175;-69
2023/07/26 06:44:22;;;;;;;0.30;0.30;;;12.50;99.90;;;;;;5054734;28;20643;-69
2023/07/26 06:46:48;;;;;;;0.40;0.40;;;11.70;99.90;;;;;;5054714;28;20177;-70
2023/07/26 06:49:14;;;;;;;0.50;0.50;;;12.70;99.90;;;;;;5054767;28;20504;-69
2023/07/26 06:51:39;;;;;;;0.50;0.50;;;12.80;99.90;;;;;;5054403;28;20174;-68
2023/07/26 06:54:05;;;;;;;0.50;0.50;;;12.90;99.90;;;;;;5054744;28;20180;-70
2023/07/26 06:56:31;;;;;;;0.40;0.40;;;13.00;99.90;;;;;;5054677;28;20217;-69
2023/07/26 06:58:56;;;;;;;0.40;0.40;;;13.10;99.90;;;;;;5054328;28;20194;-69
2023/07/26 07:01:22;;;;;;;0.70;0.70;;;13.10;99.90;;;;;;5054368;28;20256;-71
2023/07/26 07:03:48;;;;;;;0.30;0.30;;;13.20;99.90;;;;;;5054342;28;20194;-71
2023/07/26 07:06:15;;;;;;;0.60;0.60;;;13.20;99.90;;;;;;5054386;28;20279;-69
2023/07/26 07:08:41;;;;;;;0.40;0.40;;;13.20;99.90;;;;;;5054329;28;20273;-68
2023/07/26 07:11:06;;;;;;;0.80;0.80;;;13.30;99.90;;;;;;5053844;28;20901;-67
2023/07/26 07:13:36;;;;;;;0.30;0.30;;;13.40;99.90;;;;;;5054129;28;20174;-69
2023/07/26 07:16:03;;;;;;;0.40;0.40;;;13.60;99.90;;;;;;5053876;28;20254;-69
2023/07/26 07:18:30;;;;;;;7.40;0.80;;;13.90;99.90;;;;;;5053942;28;20427;-69
2023/07/26 07:20:57;;;;;;;0.70;0.70;;;14.10;99.90;;;;;;5054004;28;20424;-69
2023/07/26 07:23:24;;;;;;;0.80;0.80;;;14.30;99.90;;;;;;5054043;28;20843;-69
2023/07/26 07:25:50;;;;;;;8.13;1.17;;;14.30;99.80;;;;;;5054041;28;20891;-68
2023/07/26 07:28:15;;;;;;;1.07;1.07;;;14.30;99.80;;;;;;5054474;28;20424;-70
2023/07/26 07:30:41;;;;;;;0.53;0.53;;;14.00;99.90;;;;;;5053666;28;20173;-70
2023/07/26 07:33:07;;;;;;;0.80;0.80;;;14.00;99.90;;;;;;5054048;28;20253;-70
2023/07/26 07:35:33;;;;;;;0.40;0.40;;;14.20;99.90;;;;;;5053876;28;20216;-69
2023/07/26 07:37:58;;;;;;;0.77;0.47;;;15.80;99.90;;;;;;5051975;28;20174;-68
2023/07/26 07:40:24;;;;;;;0.40;0.40;;;16.10;99.90;;;;;;5053700;28;20179;-70
2023/07/26 07:42:50;;;;;;;0.83;0.83;;;17.40;99.40;;;;;;5053314;28;20190;-70
2023/07/26 07:45:16;;;;;;;0.40;0.40;;;18.20;94.90;;;;;;5051325;28;20174;-70
2023/07/26 07:47:41;;;;;;;0.40;0.40;;;18.60;93.30;;;;;;5053226;28;20654;-70
2023/07/26 07:50:07;;;;;;;3.80;1.27;;;18.80;94.10;;;;;;5052707;28;20444;-70
2023/07/26 07:52:33;;;;;;;0.83;0.83;;;18.70;94.00;;;;;;5051958;28;20650;-71
2023/07/26 07:55:00;;;;;;;0.40;0.40;;;18.80;93.40;;;;;;5053586;28;20296;-69
2023/07/26 07:57:26;;;;;;;1.27;0.73;;;;;;;;;;5053901;28;20503;-68
2023/07/26 07:59:51;;;;;;;0.30;0.30;;;18.40;92.70;;;;;;5053328;28;20204;-69
2023/07/26 08:02:17;;;;;;;0.40;0.40;;;17.70;93.70;;;;;;5053406;28;20457;-70
2023/07/26 08:04:43;;;;;;;0.97;0.93;;;17.10;94.60;;;;;;5053547;28;20167;-69
2023/07/26 08:07:09;;;;;;;1.23;1.13;;;17.00;96.10;;;;;;5053367;28;20172;-69
2023/07/26 08:09:34;;;;;;;0.70;0.70;;;16.80;95.30;;;;;;5053224;28;20482;-70
2023/07/26 08:12:00;;;;;;;2.17;2.00;;;16.70;95.60;;;;;;5053270;28;20410;-69
2023/07/26 08:14:26;;;;;;;1.03;1.03;;;16.90;96.30;;;;;;5053685;28;20409;-70
2023/07/26 08:16:53;;;;;;;0.73;0.73;;;18.00;94.70;;;;;;5053240;28;20412;-70
2023/07/26 08:19:19;;;;;;;0.93;0.90;;;18.60;94.20;;;;;;5053203;28;20477;-70
2023/07/26 08:21:44;;;;;;;0.80;0.80;;;19.10;93.40;;;;;;5053003;28;20512;-70
2023/07/26 08:24:10;;;;;;;1.03;0.93;;;19.50;94.20;;;;;;5053111;28;20186;-68
2023/07/26 08:26:36;;;;;;;0.70;0.70;;;19.50;91.70;;;;;;5053081;28;20182;-70
2023/07/26 08:29:01;;;;;;;5.50;0.90;;;19.40;91.80;;;;;;5053185;28;20193;-68
2023/07/26 08:31:27;;;;;;;0.60;0.60;;;19.20;92.20;;;;;;5052769;28;20258;-67
2023/07/26 08:33:53;;;;;;;1.13;0.90;;;19.50;93.00;;;;;;5052958;28;20827;-70
2023/07/26 08:36:19;;;;;;;0.90;0.90;;;19.90;91.10;;;;;;5053407;28;20631;-68
2023/07/26 08:38:45;;;;;;;0.40;0.40;;;20.00;91.10;;;;;;5054784;28;20220;-69
2023/07/26 08:41:11;;;;;;;0.70;0.70;;;20.30;92.30;;;;;;5055335;28;20781;-70
2023/07/26 08:43:37;;;;;;;0.73;0.73;;;21.50;91.90;;;;;;5055923;28;20717;-70
2023/07/26 08:46:05;;;;;;;0.60;0.60;;;22.20;91.20;;;;;;5057496;28;20408;-71
2023/07/26 08:48:32;;;;;;;0.40;0.40;;;22.40;90.40;;;;;;5056040;28;20511;-71
2023/07/26 08:51:00;;;;;;;0.43;0.43;;;22.20;90.40;;;;;;5056977;28;20458;-70
2023/07/26 08:53:27;;;;;;;0.40;0.40;;;22.10;90.60;;;;;;5057623;28;20425;-70
2023/07/26 08:55:53;;;;;;;1.37;0.90;;;21.90;90.80;;;;;;5057188;28;20486;-70
2023/07/26 08:58:20;;;;;;;0.50;0.50;;;21.80;91.00;;;;;;5055663;28;20437;-70
2023/07/26 09:00:47;;;;;;;0.40;0.40;;;21.70;90.00;;;;;;5057129;28;20415;-71
2023/07/26 09:03:13;;;;;;;0.60;0.60;;;21.60;90.50;;;;;;5056579;28;20465;-71
2023/07/26 09:05:39;;;;;;;0.63;0.63;;;21.50;90.40;;;;;;5056127;28;20419;-70
2023/07/26 09:08:05;;;;;;;0.60;0.60;;;21.10;99.90;;;;;;5057325;28;20416;-70
2023/07/26 09:10:32;;;;;;;3.03;0.70;;;21.10;90.70;;;;;;5055605;28;20169;-71
2023/07/26 09:13:16;;;;;;;0.70;0.70;;;21.00;88.90;;;;;;5056804;28;20406;-70
2023/07/26 09:15:43;;;;;;;1.03;1.03;;;20.50;88.80;;;;;;5056863;28;20407;-70
2023/07/26 09:18:10;;;;;;;0.43;0.43;;;20.40;90.90;;;;;;5057082;28;20444;-70
2023/07/26 09:20:36;;;;;;;1.30;0.80;;;20.50;91.40;;;;;;5056999;28;20742;-71
2023/07/26 09:23:04;;;;;;;0.50;0.50;;;20.60;91.40;;;;;;5056294;28;20806;-69
2023/07/26 09:25:35;;;;;;;1.53;1.20;;;20.70;91.50;;;;;;5056442;28;20403;-70
2023/07/26 09:28:01;;;;;;;0.80;0.80;;;20.90;99.90;;;;;;5056491;28;20398;-70
2023/07/26 09:30:28;;;;;;;2.20;1.10;;;20.90;91.70;;;;;;5055125;28;20472;-70
2023/07/26 09:32:56;;;;;;;0.53;0.53;;;21.10;90.90;;;;;;5056649;28;20408;-70
2023/07/26 09:35:21;;;;;;;0.73;0.73;;;22.20;90.50;;;;;;5056464;28;20767;-69
2023/07/26 09:37:47;;;;;;;0.87;0.70;;;22.90;84.90;;;;;;5056250;28;20409;-70
2023/07/26 09:40:13;;;;;;;0.97;0.63;;;24.00;81.50;;;;;;5056175;28;20431;-70
2023/07/26 09:42:46;;;;;;;1.90;0.70;;;25.00;72.10;;;;;;5056169;28;20233;-69
2023/07/26 09:45:19;;;;;;;1.13;0.87;;;26.10;71.10;;;;;;5056470;28;20178;-70
2023/07/26 09:47:46;;;;;;;0.90;0.90;;;27.10;64.20;;;;;;5055358;28;20405;-71
2023/07/26 09:50:28;;;;;;;0.80;0.80;;;27.40;67.70;;;;;;5055601;28;20920;-71
2023/07/26 09:52:55;;;;;;;0.60;0.60;;;27.00;64.00;;;;;;5055929;28;20451;-69
2023/07/26 09:55:28;;;;;;;3.03;1.10;;;26.30;61.30;;;;;;5056185;28;20405;-70
2023/07/26 09:57:55;;;;;;;0.80;0.80;;;24.80;82.30;;;;;;5056179;28;20403;-70
2023/07/26 10:00:26;;;;;;;3.80;1.03;;;24.70;65.50;;;;;;5055672;28;20428;-70
2023/07/26 10:03:06;;;;;;;1.17;0.70;;;23.50;68.40;;;;;;5055547;28;20431;-68
2023/07/26 10:05:46;;;;;;;0.60;0.60;;;22.70;72.80;;;;;;5055182;28;20778;-70
2023/07/26 10:08:12;;;;;;;0.63;0.60;;;22.10;74.20;;;;;;5054970;28;20515;-69
2023/07/26 10:10:39;;;;;;;1.07;0.83;;;22.50;69.30;;;;;;5054127;28;20499;-69
2023/07/26 10:13:05;;;;;;;0.70;0.70;;;22.50;70.00;;;;;;5055209;28;20421;-70
2023/07/26 10:15:33;;;;;;;0.50;0.40;;;22.20;74.20;;;;;;5055333;28;20408;-68
2023/07/26 10:18:00;;;;;;;0.90;0.80;;;21.70;95.60;;;;;;5055263;28;20451;-71
2023/07/26 10:20:26;;;;;;;0.60;0.60;;;20.70;76.70;;;;;;5055361;28;20755;-68
2023/07/26 10:22:54;;;;;;;1.60;1.13;;;20.10;80.60;;;;;;5055150;28;20468;-71
2023/07/26 10:25:20;;;;;;;0.73;0.60;;;19.80;80.20;;;;;;5055281;28;20186;-69
2023/07/26 10:27:46;;;;;;;0.50;0.50;;;19.30;82.90;;;;;;5055246;28;20483;-69
2023/07/26 10:30:12;;;;;;;0.67;0.67;;;19.10;81.90;;;;;;5054822;28;20969;-70
2023/07/26 10:32:59;;;;;;;1.00;1.00;;;18.90;82.80;;;;;;5054771;28;20591;-68
2023/07/26 10:35:34;;;;;;;0.70;0.70;;;18.60;84.60;;;;;;5055081;28;20182;-68
2023/07/26 10:38:03;;;;;;;1.90;1.13;;;19.20;99.90;;;;;;5054741;28;20437;-69
2023/07/26 10:40:39;;;;;;;0.40;0.40;;;19.20;86.10;;;;;;5054969;28;20422;-68
2023/07/26 10:43:19;;;;;;;0.63;0.63;;;19.30;86.30;;;;;;5054831;28;20500;-68
2023/07/26 10:45:51;;;;;;;1.13;0.93;;;19.50;84.40;;;;;;5054704;28;20405;-68
2023/07/26 10:48:22;;;;;;;1.63;1.63;;;19.30;84.40;;;;;;5054817;28;20460;-70
2023/07/26 10:50:48;;;;;;;0.70;0.70;;;19.60;84.70;;;;;;5054414;28;20417;-69
2023/07/26 10:53:32;;;;;;;0.60;0.60;;;19.70;85.90;;;;;;5054936;28;20458;-70
2023/07/26 10:56:08;;;;;;;0.60;0.60;;;19.60;83.20;;;;;;5054820;28;20359;-71
2023/07/26 10:58:34;;;;;;;0.57;0.57;;;19.20;86.80;;;;;;5054590;28;20454;-69
2023/07/26 11:01:02;;;;;;;0.50;0.50;;;19.00;89.30;;;;;;5053912;28;20454;-70
2023/07/26 11:03:28;;;;;;;0.53;0.53;;;18.70;88.60;;;;;;5054591;28;20271;-69
2023/07/26 11:05:57;;;;;;;1.13;1.13;;;18.60;87.10;;;;;;5054504;28;20401;-70
2023/07/26 11:08:46;;;;;;;2.47;1.13;;;18.80;88.00;;;;;;5054217;28;20428;-70
2023/07/26 11:11:17;;;;;;;1.03;1.03;;;18.90;86.90;;;;;;5054336;28;20409;-68
2023/07/26 11:13:43;;;;;;;1.27;1.17;;;19.20;88.80;;;;;;5054416;28;20401;-68
2023/07/26 11:16:08;;;;;;;0.60;0.60;;;19.40;89.20;;;;;;5054227;28;20859;-69
2023/07/26 11:18:41;;;;;;;2.20;0.90;;;19.70;90.00;;;;;;5054205;28;20208;-70
2023/07/26 11:21:07;;;;;;;0.70;0.70;;;19.90;90.80;;;;;;5053951;28;20223;-69
2023/07/26 11:23:32;;;;;;;1.13;1.00;;;20.10;86.60;;;;;;5054192;28;20452;-70
2023/07/26 11:25:59;;;;;;;0.97;0.97;;;20.10;83.90;;;;;;5054214;28;20416;-69
2023/07/26 11:28:30;;;;;;;1.33;1.23;;;20.30;83.70;;;;;;5053872;28;20190;-71
2023/07/26 11:30:58;;;;;;;0.70;0.70;;;20.60;91.00;;;;;;5053891;28;20490;-69
2023/07/26 11:33:31;;;;;;;1.23;1.03;;;20.90;83.60;;;;;;5054024;28;20434;-68
2023/07/26 11:35:58;;;;;;;1.13;1.03;;;21.10;84.60;;;;;;5053721;28;20409;-69
2023/07/26 11:38:23;;;;;;;0.60;0.60;;;21.20;82.50;;;;;;5053752;28;20430;-70
2023/07/26 11:40:52;;;;;;;0.67;0.67;;;21.30;84.50;;;;;;5053409;28;20411;-71
2023/07/26 11:43:19;;;;;;;0.60;0.60;;;21.30;86.80;;;;;;5053729;28;20289;-70
2023/07/26 11:45:45;;;;;;;0.83;0.50;;;21.20;77.00;;;;;;5053306;28;20494;-69
2023/07/26 11:48:11;;;;;;;2.70;0.87;;;21.10;81.40;;;;;;5053695;28;20431;-70
2023/07/26 11:50:38;;;;;;;0.60;0.60;;;21.00;83.60;;;;;;5053370;28;20461;-70
2023/07/26 11:53:06;;;;;;;0.57;0.57;;;21.00;79.30;;;;;;5053549;28;20506;-69
2023/07/26 11:55:37;;;;;;;2.40;0.90;;;21.00;79.40;;;;;;5053598;28;20765;-70
2023/07/26 11:58:03;;;;;;;0.50;0.50;;;21.30;96.10;;;;;;5052023;28;20465;-69
2023/07/26 12:00:31;;;;;;;0.60;0.60;;;21.10;76.90;;;;;;5052882;28;20616;-69
2023/07/26 12:02:57;;;;;;;0.60;0.60;;;21.10;80.70;;;;;;5051831;28;20459;-71
2023/07/26 12:05:26;;;;;;;0.70;0.40;;;20.80;82.10;;;;;;5052405;28;20501;-69
2023/07/26 12:07:58;;;;;;;0.60;0.60;;;20.80;93.30;;;;;;5052725;28;20701;-70
2023/07/26 12:10:42;;;;;;;0.60;0.60;;;20.70;78.90;;;;;;5052529;28;20970;-70
2023/07/26 12:13:19;;;;;;;0.80;0.70;;;20.50;77.90;;;;;;5052807;28;20406;-69
2023/07/26 12:15:52;;;;;;;0.60;0.60;;;20.20;82.90;;;;;;5053442;28;20398;-70
2023/07/26 12:18:22;;;;;;;1.83;1.00;;;20.40;83.10;;;;;;5053461;28;20429;-71
2023/07/26 12:21:04;;;;;;;2.63;1.83;;;20.40;78.80;;;;;;5053682;28;20462;-69
2023/07/26 12:23:50;;;;;;;0.50;0.50;;;20.60;77.50;;;;;;5053764;28;20457;-71
2023/07/26 12:26:16;;;;;;;0.80;0.60;;;20.70;76.70;;;;;;5053292;28;20400;-70
2023/07/26 12:28:44;;;;;;;0.50;0.50;;;20.60;76.60;;;;;;5053130;28;20433;-69
2023/07/26 12:31:29;;;;;;;0.50;0.50;;;20.40;82.80;;;;;;5053205;28;20172;-69
2023/07/26 12:34:06;;;;;;;0.40;0.40;;;20.50;78.70;;;;;;5053790;28;20389;-71
2023/07/26 12:36:40;;;;;;;1.07;1.00;;;20.50;77.50;;;;;;5053254;28;20444;-69
2023/07/26 12:39:08;;;;;;;0.60;0.60;;;20.50;78.10;;;;;;5053271;28;20507;-70
2023/07/26 12:41:38;;;;;;;0.87;0.87;;;20.60;78.60;;;;;;5052965;28;20403;-70
2023/07/26 12:44:07;;;;;;;0.97;0.77;;;20.70;77.50;;;;;;5053214;28;20452;-69
2023/07/26 12:46:38;;;;;;;0.77;0.77;;;20.90;75.90;;;;;;5053434;28;20421;-71
2023/07/26 12:49:08;;;;;;;0.60;0.60;;;21.00;74.40;;;;;;5052947;28;20896;-69